Time;durP1;ratioP1;P1;durP2;ratioP2;P2;SDS_P1;SDS_P2;PMS_P1;PMS_P2;Temp;Humidity;BMP_temperature;BMP_pressure;BME280_temperature;BME280_humidity;BME280_pressure;Samples;Min_cycle;Max_cycle;Signal;HPM_P1;HPM_P2
2023/03/26 00:01:16;;;;;;;1.67;1.10;;;;;;;12.32;74.89;94389.41;5073521;28;20936;-77
2023/03/26 00:03:45;;;;;;;1.97;1.70;;;;;;;12.25;75.25;94374.38;5055670;28;20457;-80
2023/03/26 00:06:14;;;;;;;1.80;1.70;;;;;;;12.28;74.64;94382.81;5073484;28;20445;-79
2023/03/26 00:08:43;;;;;;;1.40;1.30;;;;;;;12.24;74.90;94378.81;5072687;28;20946;-80
2023/03/26 00:11:12;;;;;;;1.20;1.00;;;;;;;12.21;74.97;94376.50;5073510;28;20444;-80
2023/03/26 00:13:40;;;;;;;1.70;1.20;;;;;;;12.22;75.36;94383.41;5073618;28;20515;-80
2023/03/26 00:16:08;;;;;;;1.60;1.20;;;;;;;12.13;75.99;94389.56;5073385;28;20455;-79
2023/03/26 00:18:36;;;;;;;1.27;1.17;;;;;;;12.09;75.30;94377.69;5072973;28;20834;-81
2023/03/26 00:21:05;;;;;;;1.30;1.17;;;;;;;12.06;75.77;94383.28;5073208;28;20448;-81
2023/03/26 00:23:34;;;;;;;1.20;1.10;;;;;;;12.09;75.43;94367.19;5073344;28;20451;-80
2023/03/26 00:26:01;;;;;;;1.27;1.10;;;;;;;12.01;75.81;94365.31;5073040;28;20473;-80
2023/03/26 00:28:29;;;;;;;1.70;1.50;;;;;;;12.05;75.72;94344.81;5072981;28;20480;-80
2023/03/26 00:31:00;;;;;;;1.20;1.00;;;;;;;11.92;76.49;94344.38;5073185;28;20441;-79
2023/03/26 00:33:30;;;;;;;1.40;1.30;;;;;;;11.79;76.68;94340.31;5072622;28;20916;-80
2023/03/26 00:36:00;;;;;;;1.30;1.20;;;;;;;11.75;77.14;94340.75;5073103;28;20448;-80
2023/03/26 00:38:29;;;;;;;1.60;1.30;;;;;;;11.76;77.53;94335.31;5072987;28;20523;-80
2023/03/26 00:41:04;;;;;;;1.37;1.20;;;;;;;11.68;77.14;94322.13;5073088;28;20437;-79
2023/03/26 00:43:33;;;;;;;1.50;1.40;;;;;;;11.61;77.21;94321.06;5072940;28;20451;-80
2023/03/26 00:46:01;;;;;;;1.50;1.27;;;;;;;11.57;77.39;94322.34;5072700;28;20449;-80
2023/03/26 00:48:29;;;;;;;1.90;1.30;;;;;;;11.51;78.16;94312.44;5070515;28;20831;-79
2023/03/26 00:50:57;;;;;;;1.50;1.33;;;;;;;11.38;76.72;94314.59;5072667;28;20475;-79
2023/03/26 00:53:24;;;;;;;3.57;1.67;;;;;;;11.40;78.12;94317.91;5072627;28;21022;-79
2023/03/26 00:55:51;;;;;;;1.30;1.20;;;;;;;11.43;77.12;94318.44;5072468;28;20459;-80
2023/03/26 00:58:21;;;;;;;1.40;1.30;;;;;;;11.46;76.53;94312.88;5072773;28;20588;-80
2023/03/26 01:00:50;;;;;;;1.73;1.63;;;;;;;11.52;76.44;94321.13;5072492;28;20506;-79
2023/03/26 01:03:19;;;;;;;1.70;1.60;;;;;;;11.56;77.94;94311.97;5072635;28;20456;-79
2023/03/26 01:05:51;;;;;;;1.77;1.50;;;;;;;11.59;76.30;94322.22;5072646;28;20432;-79
2023/03/26 01:08:25;;;;;;;2.80;2.10;;;;;;;11.55;75.88;94311.16;5072423;28;20445;-79
2023/03/26 01:11:01;;;;;;;1.93;1.80;;;;;;;11.70;77.90;94311.47;5072278;28;20469;-80
2023/03/26 01:13:30;;;;;;;1.50;1.23;;;;;;;11.72;74.57;94307.69;5072353;28;20460;-79
2023/03/26 01:16:00;;;;;;;2.03;1.60;;;;;;;11.78;74.11;94320.25;5072425;28;20528;-78
2023/03/26 01:18:32;;;;;;;3.00;2.17;;;;;;;11.76;73.80;94318.72;5071899;28;20525;-80
2023/03/26 01:21:08;;;;;;;2.03;1.80;;;;;;;11.72;73.57;94323.47;5072306;28;20539;-79
2023/03/26 01:23:42;;;;;;;1.33;1.23;;;;;;;11.74;73.11;94324.16;5072048;28;20540;-79
2023/03/26 01:26:22;;;;;;;1.53;1.30;;;;;;;11.67;73.48;94330.16;5053484;28;20905;-80
2023/03/26 01:28:52;;;;;;;1.47;1.33;;;;;;;11.75;74.55;94338.09;5072397;28;20436;-80
2023/03/26 01:31:28;;;;;;;1.60;1.50;;;;;;;11.75;73.75;94344.19;5072294;28;20445;-80
2023/03/26 01:34:03;;;;;;;1.43;1.33;;;;;;;11.76;73.38;94329.25;5072132;28;20510;-80
2023/03/26 01:36:43;;;;;;;1.30;1.20;;;;;;;11.67;73.54;94346.75;5072280;28;20456;-79
2023/03/26 01:39:21;;;;;;;2.03;1.73;;;;;;;11.53;74.08;94342.00;5071999;28;20453;-80
2023/03/26 01:41:55;;;;;;;1.93;1.63;;;;;;;11.58;74.73;94338.94;5072136;28;20444;-79
2023/03/26 01:44:30;;;;;;;1.60;1.50;;;;;;;11.49;75.81;94345.91;5071832;28;20440;-79
2023/03/26 01:47:00;;;;;;;1.70;1.40;;;;;;;11.57;77.65;94348.63;5071858;28;20452;-79
2023/03/26 01:49:28;;;;;;;1.80;1.70;;;;;;;11.55;77.72;94347.94;5071947;28;20453;-79
2023/03/26 01:51:56;;;;;;;2.00;1.80;;;;;;;11.59;76.76;94361.63;5071983;28;20890;-80
2023/03/26 01:54:27;;;;;;;3.70;2.40;;;;;;;11.61;77.56;94368.38;5071931;28;20543;-79
2023/03/26 01:57:07;;;;;;;3.43;1.70;;;;;;;11.63;75.97;94369.06;5072208;28;20480;-79
2023/03/26 02:00:01;;;;;;;2.00;1.80;;;;;;;11.70;77.33;94362.22;5071932;28;20456;-79
2023/03/26 02:02:37;;;;;;;2.13;1.93;;;;;;;11.55;76.62;94363.69;5072124;28;20472;-79
2023/03/26 02:05:12;;;;;;;2.30;1.67;;;;;;;11.53;77.09;94365.66;5071808;28;20472;-79
2023/03/26 02:07:44;;;;;;;1.80;1.63;;;;;;;11.47;78.19;94376.75;5072054;28;20503;-80
2023/03/26 02:10:15;;;;;;;5.63;1.80;;;;;;;11.46;77.78;94370.69;5071845;28;20864;-79
2023/03/26 02:12:44;;;;;;;1.90;1.63;;;;;;;11.48;78.23;94367.91;5071800;28;20444;-80
2023/03/26 02:15:12;;;;;;;2.00;1.73;;;;;;;11.50;78.36;94376.47;5072186;28;20445;-78
2023/03/26 02:17:40;;;;;;;3.57;2.57;;;;;;;11.45;78.48;94392.66;5071838;28;20472;-79
2023/03/26 02:20:09;;;;;;;3.17;2.73;;;;;;;11.52;78.39;94384.19;5071918;28;20452;-79
2023/03/26 02:22:39;;;;;;;2.50;2.30;;;;;;;11.47;77.85;94387.25;5071689;28;20440;-80
2023/03/26 02:25:08;;;;;;;2.90;2.23;;;;;;;11.51;78.24;94387.78;5071620;28;20927;-79
2023/03/26 02:27:35;;;;;;;2.43;2.23;;;;;;;11.48;77.66;94381.88;5071589;28;20480;-80
2023/03/26 02:30:04;;;;;;;3.30;2.10;;;;;;;11.47;77.89;94366.25;5072032;28;20455;-79
2023/03/26 02:32:31;;;;;;;3.03;2.37;;;;;;;11.53;77.98;94368.28;5072981;28;20451;-80
2023/03/26 02:34:58;;;;;;;2.27;1.97;;;;;;;11.62;77.60;94372.66;5075603;28;20448;-80
2023/03/26 02:37:25;;;;;;;2.60;2.40;;;;;;;11.67;77.03;94367.78;5074890;28;20574;-80
2023/03/26 02:39:52;;;;;;;4.57;2.93;;;;;;;11.63;77.13;94370.84;5056365;28;20459;-80
2023/03/26 02:42:19;;;;;;;9.93;2.10;;;;;;;11.60;77.42;94374.63;5075091;28;20444;-80
2023/03/26 02:44:46;;;;;;;2.00;1.90;;;;;;;11.66;77.29;94378.44;5074839;28;20452;-79
2023/03/26 02:47:16;;;;;;;4.77;1.90;;;;;;;11.55;78.98;94376.84;5056265;28;20997;-80
2023/03/26 02:49:44;;;;;;;2.47;2.20;;;;;;;11.43;77.55;94381.47;5056136;28;20476;-79
2023/03/26 02:52:11;;;;;;;2.20;2.00;;;;;;;11.37;77.71;94387.34;5074995;28;20455;-80
2023/03/26 02:54:37;;;;;;;3.23;2.30;;;;;;;11.32;77.61;94386.13;5074505;28;20997;-79
2023/03/26 02:57:04;;;;;;;4.70;2.13;;;;;;;11.24;78.77;94388.63;5074697;28;20531;-79
2023/03/26 02:59:31;;;;;;;2.33;2.13;;;;;;;11.25;78.73;94388.50;5074703;28;20950;-80
2023/03/26 03:01:58;;;;;;;2.93;2.60;;;;;;;11.23;79.51;94392.25;5074735;28;20849;-79
2023/03/26 03:04:26;;;;;;;5.77;3.13;;;;;;;11.21;80.90;94391.56;5074839;28;20852;-80
2023/03/26 03:06:56;;;;;;;2.53;2.30;;;;;;;11.07;80.47;94390.25;5074858;28;20445;-80
2023/03/26 03:09:23;;;;;;;3.07;2.77;;;;;;;11.00;79.84;94383.94;5074752;28;20798;-81
2023/03/26 03:11:51;;;;;;;3.23;2.67;;;;;;;11.01;80.78;94386.41;5074695;28;20456;-79
2023/03/26 03:14:18;;;;;;;4.13;2.67;;;;;;;11.05;80.70;94384.31;5074756;28;20547;-79
2023/03/26 03:16:45;;;;;;;3.30;3.10;;;;;;;11.03;80.34;94391.53;5074435;28;20966;-80
2023/03/26 03:19:11;;;;;;;3.77;2.50;;;;;;;10.87;80.63;94397.38;5074339;28;20478;-78
2023/03/26 03:21:42;;;;;;;3.35;2.80;;;;;;;10.84;80.52;94392.41;5073926;28;20793;-79
2023/03/26 03:24:12;;;;;;;2.60;2.40;;;;;;;10.85;81.43;94407.19;5074355;28;20198;-79
2023/03/26 03:26:41;;;;;;;2.47;2.27;;;;;;;10.81;81.11;94406.66;5074389;28;20448;-78
2023/03/26 03:29:09;;;;;;;3.20;3.00;;;;;;;10.91;81.00;94427.63;5074913;28;20796;-79
2023/03/26 03:31:36;;;;;;;3.07;2.67;;;;;;;10.93;80.96;94416.97;5074016;28;20911;-78
2023/03/26 03:34:04;;;;;;;3.40;3.10;;;;;;;10.90;81.11;94431.22;5074078;28;20896;-80
2023/03/26 03:36:31;;;;;;;3.03;2.83;;;;;;;10.88;82.23;94432.31;5073998;28;20448;-79
2023/03/26 03:39:01;;;;;;;3.93;3.40;;;;;;;10.86;81.46;94427.22;5073830;28;20978;-79
2023/03/26 03:41:28;;;;;;;4.22;3.22;;;;;;;10.84;81.22;94431.78;5073544;28;20462;-78
2023/03/26 03:43:55;;;;;;;3.30;3.00;;;;;;;10.72;81.96;94423.28;5074026;28;20209;-77
2023/03/26 03:46:22;;;;;;;4.00;3.70;;;;;;;10.69;81.51;94423.53;5055546;28;20851;-79
2023/03/26 03:48:49;;;;;;;3.30;3.00;;;;;;;10.73;82.58;94424.09;5073810;28;20441;-80
2023/03/26 03:51:17;;;;;;;2.93;2.73;;;;;;;10.73;82.46;94429.34;5073583;28;20524;-79
2023/03/26 03:53:44;;;;;;;5.53;3.90;;;;;;;10.67;83.24;94427.25;5074093;28;20428;-79
2023/03/26 03:56:13;;;;;;;3.93;3.53;;;;;;;10.70;85.15;94421.75;5074598;28;20456;-78
2023/03/26 03:58:41;;;;;;;4.30;3.10;;;;;;;10.74;82.72;94438.88;5073871;28;20487;-81
2023/03/26 04:01:09;;;;;;;3.77;3.23;;;;;;;10.84;81.72;94437.03;5074284;28;20454;-78
2023/03/26 04:03:37;;;;;;;3.60;3.30;;;;;;;10.89;81.17;94445.31;5074821;28;20542;-79
2023/03/26 04:06:05;;;;;;;4.40;3.37;;;;;;;10.90;80.45;94446.97;5075021;28;20865;-80
2023/03/26 04:08:33;;;;;;;3.03;2.80;;;;;;;10.98;81.83;94449.69;5074524;28;20453;-79
2023/03/26 04:11:00;;;;;;;4.20;3.80;;;;;;;10.94;80.06;94453.56;5074850;28;20518;-78
2023/03/26 04:13:28;;;;;;;6.00;3.17;;;;;;;11.01;80.00;94446.81;5073513;28;20950;-79
2023/03/26 04:15:55;;;;;;;4.30;3.10;;;;;;;11.12;81.40;94459.75;5072799;28;20475;-79
2023/03/26 04:18:22;;;;;;;4.07;3.60;;;;;;;11.16;80.38;94466.34;5073047;28;20545;-79
2023/03/26 04:20:49;;;;;;;3.77;3.47;;;;;;;11.14;79.07;94465.69;5074370;28;20436;-78
2023/03/26 04:23:18;;;;;;;7.10;3.13;;;;;;;11.04;81.26;94466.69;5071541;28;20526;-79
2023/03/26 04:25:47;;;;;;;4.60;3.83;;;;;;;11.10;80.17;94487.94;5073614;28;20965;-79
2023/03/26 04:28:25;;;;;;;5.13;4.50;;;;;;;10.98;79.58;94486.44;5074594;28;20449;-78
2023/03/26 04:30:53;;;;;;;3.60;3.30;;;;;;;10.97;81.61;94492.66;5074406;28;20443;-79
2023/03/26 04:33:20;;;;;;;5.07;4.57;;;;;;;11.03;79.85;94500.00;5074318;28;20505;-79
2023/03/26 04:35:48;;;;;;;4.60;4.20;;;;;;;11.02;80.32;94506.22;5067388;28;20453;-79
2023/03/26 04:38:17;;;;;;;4.40;3.37;;;;;;;11.00;80.13;94507.34;5053871;28;21002;-79
2023/03/26 04:40:46;;;;;;;7.53;4.80;;;;;;;10.97;80.28;94497.91;5054767;28;20430;-79
2023/03/26 04:43:16;;;;;;;5.50;4.03;;;;;;;10.81;81.25;94508.19;5036107;28;20794;-80
2023/03/26 04:45:44;;;;;;;4.57;4.10;;;;;;;10.83;80.52;94519.38;5053932;28;20544;-79
2023/03/26 04:48:13;;;;;;;4.50;4.10;;;;;;;10.76;81.21;94524.38;5053910;28;20457;-78
2023/03/26 04:50:41;;;;;;;3.97;3.53;;;;;;;10.64;80.92;94516.75;5054311;28;20481;-79
2023/03/26 04:53:12;;;;;;;3.60;3.30;;;;;;;10.54;82.19;94525.47;5053067;28;20464;-79
2023/03/26 04:55:45;;;;;;;5.13;4.53;;;;;;;10.53;81.65;94515.94;5052499;28;20548;-80
2023/03/26 04:58:13;;;;;;;4.60;4.23;;;;;;;10.55;81.86;94518.44;5053828;28;20480;-79
2023/03/26 05:00:40;;;;;;;5.80;3.77;;;;;;;10.57;83.26;94520.91;5053559;28;20436;-79
2023/03/26 05:03:10;;;;;;;10.40;5.40;;;;;;;10.54;81.77;94519.41;5053879;28;20428;-80
2023/03/26 05:05:39;;;;;;;5.50;4.87;;;;;;;10.58;81.37;94510.28;5053500;28;21002;-79
2023/03/26 05:08:06;;;;;;;6.87;4.70;;;;;;;10.69;81.95;94523.25;5054073;28;20771;-79
2023/03/26 05:10:33;;;;;;;5.33;4.80;;;;;;;10.74;81.44;94525.47;5053451;28;20449;-79
2023/03/26 05:12:59;;;;;;;5.90;4.00;;;;;;;10.75;80.85;94524.50;5053520;28;20438;-83
2023/03/26 05:15:26;;;;;;;5.37;4.90;;;;;;;10.69;78.68;94520.63;5053790;28;20445;-78
2023/03/26 05:17:54;;;;;;;5.30;4.60;;;;;;;10.86;77.87;94535.66;5065745;28;20441;-79
2023/03/26 05:20:25;;;;;;;5.10;4.57;;;;;;;11.45;77.58;94531.09;5073510;28;20436;-78
2023/03/26 05:22:53;;;;;;;8.03;4.93;;;;;;;12.08;80.17;94533.84;5073282;28;20436;-79
2023/03/26 05:25:20;;;;;;;7.57;5.57;;;;;;;12.61;72.32;94536.53;5073742;28;20444;-79
2023/03/26 05:27:47;;;;;;;6.20;4.90;;;;;;;13.21;69.61;94533.22;5073141;28;20443;-79
2023/03/26 05:30:16;;;;;;;6.50;5.50;;;;;;;13.68;64.86;94540.75;5073290;28;20461;-78
2023/03/26 05:32:43;;;;;;;5.40;4.80;;;;;;;13.94;63.84;94545.00;5073320;28;20495;-79
2023/03/26 05:35:10;;;;;;;5.27;4.77;;;;;;;13.92;64.26;94540.88;5073068;28;20444;-78
2023/03/26 05:37:37;;;;;;;8.57;5.17;;;;;;;14.16;63.62;94543.56;5073122;28;20466;-79
2023/03/26 05:40:10;;;;;;;6.90;6.17;;;;;;;14.44;62.85;94548.63;5073150;28;20575;-79
2023/03/26 05:42:38;;;;;;;7.00;5.47;;;;;;;14.50;62.47;94543.53;5073199;28;20439;-80
2023/03/26 05:45:07;;;;;;;6.30;5.70;;;;;;;14.42;62.92;94540.00;5073936;28;20436;-79
2023/03/26 05:47:34;;;;;;;7.30;6.53;;;;;;;14.48;62.78;94542.06;5073439;28;20512;-79
2023/03/26 05:50:00;;;;;;;6.20;5.27;;;;;;;14.70;61.33;94544.03;5073226;28;20499;-80
2023/03/26 05:52:27;;;;;;;6.07;5.53;;;;;;;15.15;60.80;94533.00;5073366;28;20448;-79
2023/03/26 05:54:54;;;;;;;6.40;5.80;;;;;;;15.29;58.96;94546.53;5072911;28;20445;-79
2023/03/26 05:57:27;;;;;;;5.90;5.30;;;;;;;14.82;59.90;94553.31;5072910;28;20448;-79
2023/03/26 05:59:54;;;;;;;6.10;5.50;;;;;;;14.37;61.46;94547.59;5073167;28;20485;-79
2023/03/26 06:02:21;;;;;;;8.07;6.50;;;;;;;14.19;63.56;94545.91;5073302;28;20445;-78
2023/03/26 06:04:47;;;;;;;9.87;6.77;;;;;;;13.82;64.11;94551.53;5073735;28;20449;-78
2023/03/26 06:07:15;;;;;;;12.53;7.27;;;;;;;13.40;65.97;94533.03;5073942;28;20457;-79
2023/03/26 06:09:42;;;;;;;6.70;6.00;;;;;;;13.36;68.83;94534.31;5076917;28;20444;-79
2023/03/26 06:12:10;;;;;;;6.33;5.73;;;;;;;13.57;67.96;94545.28;5077170;28;20922;-79
2023/03/26 06:14:41;;;;;;;8.63;6.37;;;;;;;13.83;64.90;94547.06;5076972;28;20486;-79
2023/03/26 06:17:08;;;;;;;10.20;6.40;;;;;;;14.14;65.67;94527.06;5076896;28;20910;-80
2023/03/26 06:19:35;;;;;;;8.20;6.40;;;;;;;14.46;62.09;94531.66;5076709;28;20833;-80
2023/03/26 06:22:02;;;;;;;6.90;6.20;;;;;;;14.79;63.12;94532.53;5076940;28;20447;-79
2023/03/26 06:24:29;;;;;;;5.80;5.30;;;;;;;15.28;59.14;94542.22;5076882;28;20498;-80
2023/03/26 06:26:55;;;;;;;7.27;5.97;;;;;;;15.42;57.53;94542.38;5076691;28;20452;-80
2023/03/26 06:29:22;;;;;;;7.47;6.17;;;;;;;15.40;56.18;94544.38;5076726;28;20801;-79
2023/03/26 06:31:50;;;;;;;8.77;6.43;;;;;;;15.48;56.14;94539.06;5057896;28;20872;-80
2023/03/26 06:34:17;;;;;;;9.23;5.83;;;;;;;15.87;57.44;94548.91;5076637;28;20432;-80
2023/03/26 06:36:44;;;;;;;7.20;6.47;;;;;;;16.28;55.73;94538.16;5057699;28;20970;-80
2023/03/26 06:39:11;;;;;;;7.73;7.00;;;;;;;16.55;53.45;94536.84;5077358;28;20563;-80
2023/03/26 06:41:38;;;;;;;6.60;6.00;;;;;;;16.57;53.45;94546.28;5076316;28;20439;-80
2023/03/26 06:44:04;;;;;;;7.97;6.00;;;;;;;16.45;51.74;94545.00;5057868;28;20440;-80
2023/03/26 06:46:31;;;;;;;12.90;7.90;;;;;;;16.32;51.61;94544.75;5074885;28;20945;-80
2023/03/26 06:48:59;;;;;;;10.70;8.33;;;;;;;16.15;52.89;94545.81;5056823;28;20436;-80
2023/03/26 06:51:26;;;;;;;8.57;7.70;;;;;;;16.39;52.76;94551.00;5076172;28;20471;-79
2023/03/26 06:53:53;;;;;;;9.20;7.23;;;;;;;16.24;53.17;94558.88;5076279;28;20437;-81
2023/03/26 06:56:20;;;;;;;11.60;7.47;;;;;;;16.02;52.83;94560.44;5057432;28;20457;-80
2023/03/26 06:58:46;;;;;;;9.93;7.17;;;;;;;15.98;53.32;94556.50;5076128;28;20476;-81
2023/03/26 07:01:13;;;;;;;9.33;6.67;;;;;;;16.25;52.74;94549.91;5076088;28;20440;-80
2023/03/26 07:03:40;;;;;;;6.80;6.10;;;;;;;16.45;50.73;94558.25;5075830;28;20790;-81
2023/03/26 07:06:09;;;;;;;7.87;7.07;;;;;;;16.60;49.56;94567.09;5075988;28;20444;-80
2023/03/26 07:08:36;;;;;;;7.40;5.67;;;;;;;16.63;49.07;94573.88;5075784;28;20816;-80
2023/03/26 07:11:03;;;;;;;10.77;6.40;;;;;;;16.80;49.44;94566.69;5075876;28;20434;-79
2023/03/26 07:13:30;;;;;;;6.37;5.83;;;;;;;16.90;48.69;94569.94;5074925;28;20450;-80
2023/03/26 07:15:56;;;;;;;6.87;6.27;;;;;;;16.84;49.72;94568.00;5074531;28;20443;-80
2023/03/26 07:18:23;;;;;;;8.83;6.27;;;;;;;16.86;50.12;94561.50;5075351;28;20438;-79
2023/03/26 07:20:51;;;;;;;6.40;5.50;;;;;;;16.88;48.87;94553.38;5075143;28;20476;-79
2023/03/26 07:23:20;;;;;;;9.43;6.00;;;;;;;16.72;49.18;94564.91;5075784;28;20443;-79
2023/03/26 07:25:48;;;;;;;6.40;5.77;;;;;;;16.88;50.20;94556.03;5074621;28;20480;-78
2023/03/26 07:28:24;;;;;;;5.40;4.90;;;;;;;17.09;58.56;94548.25;5075225;28;20447;-79
2023/03/26 07:31:00;;;;;;;7.53;5.97;;;;;;;17.24;49.10;94551.75;5075321;28;20436;-79
2023/03/26 07:33:35;;;;;;;7.67;6.73;;;;;;;17.06;51.44;94545.97;5075345;28;20469;-79
2023/03/26 07:36:15;;;;;;;7.40;5.60;;;;;;;16.91;50.07;94547.72;5075487;28;20438;-78
2023/03/26 07:38:55;;;;;;;7.00;6.30;;;;;;;16.57;49.96;94540.16;5075592;28;20435;-80
2023/03/26 07:41:31;;;;;;;7.33;6.63;;;;;;;16.28;49.69;94548.75;5075158;28;20450;-80
2023/03/26 07:44:21;;;;;;;8.00;6.50;;;;;;;16.07;49.97;94544.03;5075115;28;20431;-80
2023/03/26 07:46:52;;;;;;;6.43;5.43;;;;;;;15.89;51.33;94541.63;5075277;28;20438;-78
2023/03/26 07:49:19;;;;;;;11.20;6.90;;;;;;;16.02;51.49;94536.63;5075642;28;20448;-78
2023/03/26 07:51:47;;;;;;;7.47;6.07;;;;;;;16.11;50.41;94548.81;5074777;28;20536;-77
2023/03/26 07:54:15;;;;;;;6.30;5.70;;;;;;;16.22;49.92;94542.31;5072796;28;20457;-77
2023/03/26 07:56:48;;;;;;;7.93;6.10;;;;;;;16.43;49.73;94545.19;5042160;28;20469;-78
2023/03/26 07:59:24;;;;;;;9.77;6.70;;;;;;;16.51;48.34;94543.50;5073853;28;20474;-77
2023/03/26 08:02:20;;;;;;;8.17;5.53;;;;;;;16.77;54.32;94556.41;5054658;28;20492;-79
2023/03/26 08:05:09;;;;;;;7.80;4.50;;;;;;;16.91;46.65;94543.25;5060228;28;20451;-78
2023/03/26 08:07:51;;;;;;;8.00;5.43;;;;;;;17.02;48.53;94542.00;5073922;28;20542;-79
2023/03/26 08:10:25;;;;;;;6.73;5.77;;;;;;;16.87;46.94;94541.13;5061031;28;20451;-79
2023/03/26 08:12:57;;;;;;;7.97;5.83;;;;;;;16.84;47.45;94541.50;5071567;28;20492;-78
2023/03/26 08:15:29;;;;;;;5.40;4.90;;;;;;;16.94;46.42;94539.41;5073833;28;20929;-79
2023/03/26 08:18:05;;;;;;;5.37;4.80;;;;;;;16.86;49.08;94534.19;5073778;28;20449;-78
2023/03/26 08:20:42;;;;;;;5.53;4.73;;;;;;;16.66;46.76;94539.94;5073880;28;20520;-79
2023/03/26 08:23:17;;;;;;;6.17;5.57;;;;;;;16.54;46.71;94546.63;5074254;28;20447;-79
2023/03/26 08:25:58;;;;;;;6.90;5.03;;;;;;;16.89;52.09;94539.94;5071841;28;20451;-77
2023/03/26 08:28:39;;;;;;;5.13;4.73;;;;;;;16.69;46.62;94536.94;5074452;28;20451;-75
2023/03/26 08:31:11;;;;;;;5.30;4.90;;;;;;;16.67;46.05;94535.47;5073339;28;20818;-82
2023/03/26 08:33:39;;;;;;;8.40;5.53;;;;;;;16.60;46.11;94543.25;5074271;28;20910;-80
2023/03/26 08:36:07;;;;;;;6.20;5.00;;;;;;;16.66;44.05;94539.94;5074768;28;20486;-83
2023/03/26 08:38:34;;;;;;;5.40;4.43;;;;;;;16.79;45.16;94538.56;5072603;28;20955;-78
2023/03/26 08:41:35;;;;;;;7.07;5.77;;;;;;;16.98;45.49;94543.34;5072585;28;20551;-78
2023/03/26 08:44:47;;;;;;;5.07;4.57;;;;;;;17.37;44.23;94529.94;5073914;28;20785;-78
2023/03/26 08:47:51;;;;;;;4.90;4.50;;;;;;;17.43;42.67;94528.41;5051702;28;20502;-80
2023/03/26 08:50:38;;;;;;;6.70;5.20;;;;;;;17.39;44.66;94524.47;5051930;28;20499;-83
2023/03/26 08:53:47;;;;;;;7.00;4.10;;;;;;;17.60;42.33;94532.53;4973228;28;20459;-82
2023/03/26 09:00:17;;;;;;;8.10;6.73;;;;;;;17.90;44.21;94528.91;4972147;28;20523;-79
2023/03/26 09:03:08;;;;;;;4.63;3.60;;;;;;;18.14;42.22;94529.63;4896505;29;20928;-78
2023/03/26 09:06:18;;;;;;;4.73;3.60;;;;;;;18.33;39.19;94529.06;4865364;29;20938;-79
2023/03/26 09:09:20;;;;;;;11.37;5.20;;;;;;;18.20;40.16;94534.19;4896422;29;20453;-77
2023/03/26 09:12:13;;;;;;;24.03;5.80;;;;;;;18.23;51.04;94539.16;4896440;29;20459;-84
2023/03/26 09:15:11;;;;;;;12.63;4.83;;;;;;;18.00;44.12;94536.59;4896908;29;20215;-87
2023/03/26 09:18:15;;;;;;;4.63;2.70;;;;;;;17.88;40.61;94530.09;4896775;29;20452;-80
2023/03/26 09:21:08;;;;;;;3.87;3.47;;;;;;;17.96;37.83;94527.38;4900464;29;20494;-80
2023/03/26 09:24:07;;;;;;;3.03;2.73;;;;;;;18.17;37.59;94523.94;4922427;29;20455;-80
2023/03/26 09:26:45;;;;;;;3.93;3.17;;;;;;;18.19;36.00;94525.41;4934167;29;20456;-80
2023/03/26 09:29:41;;;;;;;2.67;2.47;;;;;;;18.16;40.02;94507.19;4934159;28;20544;-80
2023/03/26 09:32:42;;;;;;;3.70;3.00;;;;;;;17.97;35.75;94509.59;4992079;28;20465;-80
2023/03/26 09:35:14;;;;;;;4.40;3.90;;;;;;;17.98;38.26;94519.22;4991825;28;20459;-80
2023/03/26 09:37:56;;;;;;;2.70;2.50;;;;;;;17.92;46.62;94505.66;4991922;28;21209;-79
2023/03/26 09:40:32;;;;;;;2.73;2.53;;;;;;;18.08;37.49;94514.44;5016956;28;21057;-81
2023/03/26 09:43:20;;;;;;;3.30;2.40;;;;;;;18.11;36.16;94512.22;5037697;28;20443;-81
2023/03/26 09:45:55;;;;;;;3.30;3.07;;;;;;;18.10;36.45;94513.25;4959565;28;20449;-80
2023/03/26 09:48:52;;;;;;;5.63;3.47;;;;;;;18.14;37.22;94503.06;4959811;28;20462;-81
2023/03/26 09:51:48;;;;;;;6.00;2.80;;;;;;;17.95;43.64;94501.81;4959308;29;20506;-80
2023/03/26 09:54:43;;;;;;;7.10;2.57;;;;;;;17.90;38.91;94507.66;4883623;29;20457;-81
2023/03/26 09:57:22;;;;;;;4.13;3.13;;;;;;;17.89;48.38;94495.41;4883477;29;20875;-82
2023/03/26 10:00:08;;;;;;;2.97;2.40;;;;;;;18.14;39.66;94500.41;4883545;29;20489;-80
2023/03/26 10:02:57;;;;;;;3.40;2.80;;;;;;;18.16;38.50;94485.94;4844390;29;20472;-80
2023/03/26 10:05:37;;;;;;;8.60;2.60;;;;;;;18.11;41.04;94488.34;4874148;29;20444;-80
2023/03/26 10:08:19;;;;;;;3.23;2.47;;;;;;;18.13;39.11;94480.19;4921153;29;20838;-81
2023/03/26 10:10:53;;;;;;;4.60;2.77;;;;;;;18.16;40.32;94485.94;4920932;29;20447;-82
2023/03/26 10:13:29;;;;;;;3.40;3.10;;;;;;;18.12;38.92;94478.53;4921056;29;20545;-80
2023/03/26 10:16:13;;;;;;;4.30;2.67;;;;;;;17.99;39.19;94465.94;4920896;29;20832;-81
2023/03/26 10:18:51;;;;;;;2.70;2.50;;;;;;;18.01;38.83;94465.75;4920966;29;20455;-81
2023/03/26 10:21:31;;;;;;;2.47;2.17;;;;;;;18.17;42.42;94468.16;4928691;29;20482;-80
2023/03/26 10:24:13;;;;;;;2.53;2.33;;;;;;;18.23;38.52;94457.66;4990209;28;20483;-82
2023/03/26 10:26:55;;;;;;;8.03;3.37;;;;;;;18.57;55.20;94451.66;4997161;28;20444;-84
2023/03/26 10:29:57;;;;;;;2.30;2.10;;;;;;;18.85;41.92;94448.28;4998106;28;20443;-85
2023/03/26 10:32:31;;;;;;;2.60;2.40;;;;;;;18.79;44.21;94449.84;5036349;28;20449;-85
2023/03/26 10:35:08;;;;;;;3.57;2.73;;;;;;;18.78;40.54;94426.91;5036621;28;20474;-85
2023/03/26 10:37:47;;;;;;;3.17;2.53;;;;;;;18.87;41.51;94432.94;5036957;28;20450;-85
2023/03/26 10:40:23;;;;;;;2.57;2.37;;;;;;;19.13;41.75;94429.66;5036937;28;21046;-79
2023/03/26 10:43:11;;;;;;;3.70;2.70;;;;;;;18.87;34.99;94422.31;5036294;28;20479;-81
2023/03/26 10:45:51;;;;;;;4.03;2.27;;;;;;;18.61;35.69;94425.53;5036944;28;20443;-80
2023/03/26 10:48:30;;;;;;;4.23;2.20;;;;;;;18.32;36.85;94420.34;5037120;28;20910;-80
2023/03/26 10:51:23;;;;;;;2.07;1.60;;;;;;;18.23;36.05;94420.47;5036862;28;20573;-81
2023/03/26 10:53:56;;;;;;;2.00;1.70;;;;;;;17.96;36.07;94415.88;4955947;28;20442;-80
2023/03/26 10:56:28;;;;;;;3.33;1.97;;;;;;;17.92;35.57;94410.06;4955594;29;20454;-80
2023/03/26 10:58:56;;;;;;;1.87;1.67;;;;;;;17.90;35.56;94404.13;4956275;28;20558;-79
2023/03/26 11:01:35;;;;;;;3.70;2.00;;;;;;;17.99;36.30;94398.75;4955691;29;20474;-81
2023/03/26 11:04:15;;;;;;;1.90;1.53;;;;;;;18.03;35.60;94394.69;4955643;28;20444;-80
2023/03/26 11:06:49;;;;;;;4.80;2.70;;;;;;;17.94;38.40;94409.91;4955061;28;20489;-78
2023/03/26 11:09:28;;;;;;;14.13;3.10;;;;;;;18.02;36.67;94403.66;4974489;28;20443;-78
2023/03/26 11:12:05;;;;;;;2.30;1.80;;;;;;;18.11;35.24;94392.72;5013833;28;20447;-79
2023/03/26 11:14:38;;;;;;;7.80;2.10;;;;;;;18.26;36.88;94396.16;5013708;28;20444;-80
2023/03/26 11:17:16;;;;;;;3.27;1.67;;;;;;;18.32;35.64;94394.59;5013728;28;21002;-79
2023/03/26 11:19:51;;;;;;;2.23;2.03;;;;;;;18.24;37.71;94382.25;5014123;28;20493;-79
2023/03/26 11:22:26;;;;;;;3.30;2.37;;;;;;;18.00;35.32;94384.44;5013826;28;21112;-80
2023/03/26 11:25:16;;;;;;;2.73;2.43;;;;;;;17.68;35.16;94375.94;5013647;28;20789;-80
2023/03/26 11:28:00;;;;;;;2.30;2.10;;;;;;;17.67;40.52;94382.25;5013418;28;20442;-80
2023/03/26 11:30:37;;;;;;;2.00;1.73;;;;;;;17.73;35.36;94375.38;5033149;28;20448;-80
2023/03/26 11:33:08;;;;;;;3.30;1.70;;;;;;;17.55;38.39;94381.03;5074070;28;20451;-80
2023/03/26 11:35:38;;;;;;;2.43;1.80;;;;;;;17.63;35.72;94367.63;5038600;28;20443;-80
2023/03/26 11:38:07;;;;;;;1.50;1.37;;;;;;;17.62;33.48;94372.13;5074016;28;20444;-80
2023/03/26 11:40:38;;;;;;;6.60;1.90;;;;;;;17.59;35.33;94367.19;5074278;28;20523;-80
2023/03/26 11:43:08;;;;;;;1.43;1.33;;;;;;;17.77;35.76;94364.19;5055052;28;20436;-80
2023/03/26 11:45:37;;;;;;;1.97;1.87;;;;;;;17.93;35.43;94371.94;5073736;28;20459;-80
2023/03/26 11:48:10;;;;;;;2.40;2.20;;;;;;;17.94;33.94;94352.34;5073807;28;20463;-80
2023/03/26 11:50:44;;;;;;;4.90;2.37;;;;;;;17.98;34.48;94347.47;5073827;28;20472;-80
2023/03/26 11:53:13;;;;;;;2.90;2.70;;;;;;;18.04;35.12;94349.38;5073560;28;20445;-80
2023/03/26 11:55:45;;;;;;;3.90;3.10;;;;;;;18.19;34.86;94328.03;5073558;28;20459;-80
2023/03/26 11:58:24;;;;;;;3.40;2.40;;;;;;;18.14;33.73;94325.97;5073485;28;20445;-79
2023/03/26 12:00:54;;;;;;;2.50;2.30;;;;;;;18.05;34.29;94328.94;5073351;28;20485;-79
2023/03/26 12:03:20;;;;;;;7.63;3.50;;;;;;;17.83;32.47;94325.44;5073778;28;20452;-80
2023/03/26 12:05:50;;;;;;;2.57;1.80;;;;;;;17.67;31.91;94310.59;5072288;28;20809;-79